sensor_id;sensor_type;location;lat;lon;timestamp;P1;durP1;ratioP1;P2;durP2;ratioP2
12784;SDS011;6456;42.680;23.260;2022-09-03T00:00:15;6.07;;;4.80;;
12784;SDS011;6456;42.680;23.260;2022-09-03T00:02:51;5.53;;;4.97;;
12784;SDS011;6456;42.680;23.260;2022-09-03T00:05:28;5.77;;;5.23;;
12784;SDS011;6456;42.680;23.260;2022-09-03T00:08:02;5.90;;;5.20;;
12784;SDS011;6456;42.680;23.260;2022-09-03T00:10:35;6.00;;;5.40;;
12784;SDS011;6456;42.680;23.260;2022-09-03T00:13:13;5.87;;;5.30;;
12784;SDS011;6456;42.680;23.260;2022-09-03T00:15:45;5.43;;;4.90;;
12784;SDS011;6456;42.680;23.260;2022-09-03T00:18:14;6.50;;;5.40;;
12784;SDS011;6456;42.680;23.260;2022-09-03T00:20:46;5.70;;;5.17;;
12784;SDS011;6456;42.680;23.260;2022-09-03T00:23:18;5.80;;;4.87;;
12784;SDS011;6456;42.680;23.260;2022-09-03T00:25:51;6.40;;;5.23;;
12784;SDS011;6456;42.680;23.260;2022-09-03T00:28:25;6.47;;;5.67;;
12784;SDS011;6456;42.680;23.260;2022-09-03T00:31:05;5.57;;;5.07;;
12784;SDS011;6456;42.680;23.260;2022-09-03T00:33:36;5.83;;;5.33;;
12784;SDS011;6456;42.680;23.260;2022-09-03T00:36:11;6.83;;;6.13;;
12784;SDS011;6456;42.680;23.260;2022-09-03T00:38:42;6.63;;;5.93;;
12784;SDS011;6456;42.680;23.260;2022-09-03T00:41:16;7.13;;;6.10;;
12784;SDS011;6456;42.680;23.260;2022-09-03T00:44:02;7.83;;;6.00;;
12784;SDS011;6456;42.680;23.260;2022-09-03T00:46:40;6.57;;;5.33;;
12784;SDS011;6456;42.680;23.260;2022-09-03T00:49:21;6.03;;;5.43;;
12784;SDS011;6456;42.680;23.260;2022-09-03T00:52:01;6.80;;;6.10;;
12784;SDS011;6456;42.680;23.260;2022-09-03T00:54:39;5.97;;;5.37;;
12784;SDS011;6456;42.680;23.260;2022-09-03T00:57:28;6.60;;;5.60;;
12784;SDS011;6456;42.680;23.260;2022-09-03T01:00:07;6.07;;;5.47;;
12784;SDS011;6456;42.680;23.260;2022-09-03T01:02:41;5.40;;;4.90;;
12784;SDS011;6456;42.680;23.260;2022-09-03T01:05:20;5.47;;;4.97;;
12784;SDS011;6456;42.680;23.260;2022-09-03T01:08:02;6.27;;;5.67;;
12784;SDS011;6456;42.680;23.260;2022-09-03T01:10:39;5.00;;;4.50;;
12784;SDS011;6456;42.680;23.260;2022-09-03T01:13:18;6.07;;;5.00;;
12784;SDS011;6456;42.680;23.260;2022-09-03T01:15:51;5.67;;;5.17;;
12784;SDS011;6456;42.680;23.260;2022-09-03T01:18:31;5.83;;;5.20;;
12784;SDS011;6456;42.680;23.260;2022-09-03T01:21:15;6.70;;;5.90;;
12784;SDS011;6456;42.680;23.260;2022-09-03T01:24:13;6.07;;;5.47;;
12784;SDS011;6456;42.680;23.260;2022-09-03T01:27:01;8.33;;;6.03;;
12784;SDS011;6456;42.680;23.260;2022-09-03T01:29:43;7.03;;;5.67;;
12784;SDS011;6456;42.680;23.260;2022-09-03T01:32:21;10.13;;;6.40;;
12784;SDS011;6456;42.680;23.260;2022-09-03T01:35:01;5.63;;;5.07;;
12784;SDS011;6456;42.680;23.260;2022-09-03T01:37:36;6.53;;;5.93;;
12784;SDS011;6456;42.680;23.260;2022-09-03T01:40:17;6.33;;;5.73;;
12784;SDS011;6456;42.680;23.260;2022-09-03T01:42:58;6.53;;;5.93;;
12784;SDS011;6456;42.680;23.260;2022-09-03T01:45:39;6.10;;;5.50;;
12784;SDS011;6456;42.680;23.260;2022-09-03T01:51:18;5.77;;;5.27;;
12784;SDS011;6456;42.680;23.260;2022-09-03T01:56:44;6.23;;;5.37;;
12784;SDS011;6456;42.680;23.260;2022-09-03T01:59:27;6.23;;;5.23;;
12784;SDS011;6456;42.680;23.260;2022-09-03T02:02:03;6.37;;;5.50;;
12784;SDS011;6456;42.680;23.260;2022-09-03T02:04:36;6.20;;;5.30;;
12784;SDS011;6456;42.680;23.260;2022-09-03T02:07:04;6.17;;;5.63;;
12784;SDS011;6456;42.680;23.260;2022-09-03T02:09:32;6.57;;;5.53;;
12784;SDS011;6456;42.680;23.260;2022-09-03T02:12:00;6.27;;;5.67;;
12784;SDS011;6456;42.680;23.260;2022-09-03T02:14:33;6.67;;;6.00;;
12784;SDS011;6456;42.680;23.260;2022-09-03T02:17:08;6.27;;;5.67;;
12784;SDS011;6456;42.680;23.260;2022-09-03T02:19:36;6.37;;;5.33;;
12784;SDS011;6456;42.680;23.260;2022-09-03T02:22:04;6.40;;;5.80;;
12784;SDS011;6456;42.680;23.260;2022-09-03T02:24:31;6.60;;;5.90;;
12784;SDS011;6456;42.680;23.260;2022-09-03T02:26:59;6.23;;;5.53;;
12784;SDS011;6456;42.680;23.260;2022-09-03T02:29:28;6.70;;;6.00;;
12784;SDS011;6456;42.680;23.260;2022-09-03T02:31:56;8.23;;;6.03;;
12784;SDS011;6456;42.680;23.260;2022-09-03T02:34:25;6.40;;;5.80;;
12784;SDS011;6456;42.680;23.260;2022-09-03T02:36:52;6.87;;;5.90;;
12784;SDS011;6456;42.680;23.260;2022-09-03T02:39:20;6.87;;;6.17;;
12784;SDS011;6456;42.680;23.260;2022-09-03T02:41:49;8.37;;;6.47;;
12784;SDS011;6456;42.680;23.260;2022-09-03T02:44:20;6.63;;;5.93;;
12784;SDS011;6456;42.680;23.260;2022-09-03T02:46:53;6.73;;;6.13;;
12784;SDS011;6456;42.680;23.260;2022-09-03T02:49:22;7.00;;;6.30;;
12784;SDS011;6456;42.680;23.260;2022-09-03T02:51:56;8.20;;;6.20;;
12784;SDS011;6456;42.680;23.260;2022-09-03T02:54:27;9.37;;;6.17;;
12784;SDS011;6456;42.680;23.260;2022-09-03T02:56:55;5.97;;;5.47;;
12784;SDS011;6456;42.680;23.260;2022-09-03T02:59:22;7.33;;;6.30;;
12784;SDS011;6456;42.680;23.260;2022-09-03T03:01:49;6.57;;;5.87;;
12784;SDS011;6456;42.680;23.260;2022-09-03T03:04:16;6.87;;;6.17;;
12784;SDS011;6456;42.680;23.260;2022-09-03T03:06:45;6.50;;;5.90;;
12784;SDS011;6456;42.680;23.260;2022-09-03T03:09:17;6.50;;;5.90;;
12784;SDS011;6456;42.680;23.260;2022-09-03T03:11:45;7.07;;;6.37;;
12784;SDS011;6456;42.680;23.260;2022-09-03T03:14:14;6.60;;;6.00;;
12784;SDS011;6456;42.680;23.260;2022-09-03T03:16:43;7.20;;;6.50;;
12784;SDS011;6456;42.680;23.260;2022-09-03T03:19:11;6.00;;;5.43;;
12784;SDS011;6456;42.680;23.260;2022-09-03T03:21:38;6.93;;;6.20;;
12784;SDS011;6456;42.680;23.260;2022-09-03T03:24:07;8.50;;;6.27;;
12784;SDS011;6456;42.680;23.260;2022-09-03T03:26:34;7.10;;;6.23;;
12784;SDS011;6456;42.680;23.260;2022-09-03T03:29:02;7.50;;;6.57;;
12784;SDS011;6456;42.680;23.260;2022-09-03T03:31:31;7.00;;;6.30;;
12784;SDS011;6456;42.680;23.260;2022-09-03T03:33:59;7.13;;;6.53;;
12784;SDS011;6456;42.680;23.260;2022-09-03T03:36:30;8.53;;;6.87;;
12784;SDS011;6456;42.680;23.260;2022-09-03T03:38:59;7.23;;;6.20;;
12784;SDS011;6456;42.680;23.260;2022-09-03T03:41:29;8.30;;;6.43;;
12784;SDS011;6456;42.680;23.260;2022-09-03T03:43:58;7.20;;;6.50;;
12784;SDS011;6456;42.680;23.260;2022-09-03T03:46:28;7.60;;;6.90;;
12784;SDS011;6456;42.680;23.260;2022-09-03T03:49:03;7.27;;;6.57;;
12784;SDS011;6456;42.680;23.260;2022-09-03T03:51:34;7.40;;;6.60;;
12784;SDS011;6456;42.680;23.260;2022-09-03T03:54:04;7.20;;;6.50;;
12784;SDS011;6456;42.680;23.260;2022-09-03T03:56:34;7.10;;;6.40;;
12784;SDS011;6456;42.680;23.260;2022-09-03T03:59:09;7.03;;;6.30;;
12784;SDS011;6456;42.680;23.260;2022-09-03T04:01:38;7.20;;;6.37;;
12784;SDS011;6456;42.680;23.260;2022-09-03T04:04:05;8.30;;;6.50;;
12784;SDS011;6456;42.680;23.260;2022-09-03T04:06:32;7.80;;;7.00;;
12784;SDS011;6456;42.680;23.260;2022-09-03T04:08:59;8.50;;;6.87;;
12784;SDS011;6456;42.680;23.260;2022-09-03T04:11:26;6.70;;;6.03;;
12784;SDS011;6456;42.680;23.260;2022-09-03T04:13:55;7.53;;;6.73;;
12784;SDS011;6456;42.680;23.260;2022-09-03T04:16:22;7.03;;;6.40;;
12784;SDS011;6456;42.680;23.260;2022-09-03T04:18:51;6.97;;;6.27;;
12784;SDS011;6456;42.680;23.260;2022-09-03T04:21:19;7.27;;;6.60;;
12784;SDS011;6456;42.680;23.260;2022-09-03T04:23:48;9.87;;;6.63;;
12784;SDS011;6456;42.680;23.260;2022-09-03T04:26:16;7.60;;;6.10;;
12784;SDS011;6456;42.680;23.260;2022-09-03T04:28:45;7.53;;;6.57;;
12784;SDS011;6456;42.680;23.260;2022-09-03T04:31:14;7.50;;;6.60;;
12784;SDS011;6456;42.680;23.260;2022-09-03T04:33:42;6.63;;;5.93;;
12784;SDS011;6456;42.680;23.260;2022-09-03T04:36:10;9.53;;;6.77;;
12784;SDS011;6456;42.680;23.260;2022-09-03T04:38:40;8.73;;;6.13;;
12784;SDS011;6456;42.680;23.260;2022-09-03T04:41:08;7.00;;;6.30;;
12784;SDS011;6456;42.680;23.260;2022-09-03T04:43:44;7.10;;;6.00;;
12784;SDS011;6456;42.680;23.260;2022-09-03T04:46:29;8.47;;;6.60;;
12784;SDS011;6456;42.680;23.260;2022-09-03T04:48:57;7.17;;;6.47;;
12784;SDS011;6456;42.680;23.260;2022-09-03T04:51:24;7.80;;;6.10;;
12784;SDS011;6456;42.680;23.260;2022-09-03T04:53:53;7.60;;;5.67;;
12784;SDS011;6456;42.680;23.260;2022-09-03T04:56:22;6.00;;;5.50;;
12784;SDS011;6456;42.680;23.260;2022-09-03T04:58:53;6.40;;;5.80;;
12784;SDS011;6456;42.680;23.260;2022-09-03T05:01:21;6.27;;;5.70;;
12784;SDS011;6456;42.680;23.260;2022-09-03T05:03:51;7.30;;;6.60;;
12784;SDS011;6456;42.680;23.260;2022-09-03T05:06:18;7.37;;;6.30;;
12784;SDS011;6456;42.680;23.260;2022-09-03T05:08:46;6.97;;;6.27;;
12784;SDS011;6456;42.680;23.260;2022-09-03T05:11:13;8.00;;;6.53;;
12784;SDS011;6456;42.680;23.260;2022-09-03T05:13:40;7.70;;;6.70;;
12784;SDS011;6456;42.680;23.260;2022-09-03T05:16:08;8.87;;;7.10;;
12784;SDS011;6456;42.680;23.260;2022-09-03T05:18:37;8.07;;;7.23;;
12784;SDS011;6456;42.680;23.260;2022-09-03T05:21:08;7.67;;;6.87;;
12784;SDS011;6456;42.680;23.260;2022-09-03T05:23:38;7.60;;;6.80;;
12784;SDS011;6456;42.680;23.260;2022-09-03T05:26:07;7.07;;;5.97;;
12784;SDS011;6456;42.680;23.260;2022-09-03T05:28:35;6.73;;;6.03;;
12784;SDS011;6456;42.680;23.260;2022-09-03T05:31:05;6.50;;;5.63;;
12784;SDS011;6456;42.680;23.260;2022-09-03T05:33:33;6.43;;;5.83;;
12784;SDS011;6456;42.680;23.260;2022-09-03T05:36:01;6.23;;;5.63;;
12784;SDS011;6456;42.680;23.260;2022-09-03T05:38:31;7.57;;;6.00;;
12784;SDS011;6456;42.680;23.260;2022-09-03T05:40:58;6.33;;;5.70;;
12784;SDS011;6456;42.680;23.260;2022-09-03T05:43:25;5.60;;;5.10;;
12784;SDS011;6456;42.680;23.260;2022-09-03T05:45:56;5.60;;;5.10;;
12784;SDS011;6456;42.680;23.260;2022-09-03T05:48:24;5.80;;;5.10;;
12784;SDS011;6456;42.680;23.260;2022-09-03T05:50:57;5.83;;;5.23;;
12784;SDS011;6456;42.680;23.260;2022-09-03T05:53:25;5.60;;;5.10;;
12784;SDS011;6456;42.680;23.260;2022-09-03T05:55:56;5.73;;;5.23;;
12784;SDS011;6456;42.680;23.260;2022-09-03T05:58:24;6.67;;;5.60;;
12784;SDS011;6456;42.680;23.260;2022-09-03T06:00:55;5.70;;;4.77;;
12784;SDS011;6456;42.680;23.260;2022-09-03T06:03:22;6.77;;;5.33;;
12784;SDS011;6456;42.680;23.260;2022-09-03T06:05:49;4.90;;;4.50;;
12784;SDS011;6456;42.680;23.260;2022-09-03T06:08:16;5.20;;;4.70;;
12784;SDS011;6456;42.680;23.260;2022-09-03T06:10:43;5.30;;;4.80;;
12784;SDS011;6456;42.680;23.260;2022-09-03T06:13:11;4.77;;;4.37;;
12784;SDS011;6456;42.680;23.260;2022-09-03T06:15:38;5.17;;;4.77;;
12784;SDS011;6456;42.680;23.260;2022-09-03T06:18:05;5.37;;;4.87;;
12784;SDS011;6456;42.680;23.260;2022-09-03T06:20:32;4.90;;;4.50;;
12784;SDS011;6456;42.680;23.260;2022-09-03T06:22:59;5.07;;;4.57;;
12784;SDS011;6456;42.680;23.260;2022-09-03T06:25:26;4.93;;;4.53;;
12784;SDS011;6456;42.680;23.260;2022-09-03T06:27:53;5.17;;;4.53;;
12784;SDS011;6456;42.680;23.260;2022-09-03T06:30:21;6.00;;;5.50;;
12784;SDS011;6456;42.680;23.260;2022-09-03T06:32:50;4.87;;;4.47;;
12784;SDS011;6456;42.680;23.260;2022-09-03T06:35:18;5.53;;;5.03;;
12784;SDS011;6456;42.680;23.260;2022-09-03T06:37:45;5.90;;;5.40;;
12784;SDS011;6456;42.680;23.260;2022-09-03T06:40:11;6.07;;;5.47;;
12784;SDS011;6456;42.680;23.260;2022-09-03T06:42:53;6.80;;;5.47;;
12784;SDS011;6456;42.680;23.260;2022-09-03T06:45:24;5.90;;;5.40;;
12784;SDS011;6456;42.680;23.260;2022-09-03T06:47:52;5.37;;;4.93;;
12784;SDS011;6456;42.680;23.260;2022-09-03T06:50:19;5.27;;;4.87;;
12784;SDS011;6456;42.680;23.260;2022-09-03T06:52:49;5.83;;;5.33;;
12784;SDS011;6456;42.680;23.260;2022-09-03T06:55:17;5.80;;;5.30;;
12784;SDS011;6456;42.680;23.260;2022-09-03T06:57:44;5.83;;;5.33;;
12784;SDS011;6456;42.680;23.260;2022-09-03T07:00:12;5.77;;;5.27;;
12784;SDS011;6456;42.680;23.260;2022-09-03T07:02:41;5.47;;;4.70;;
12784;SDS011;6456;42.680;23.260;2022-09-03T07:05:09;5.80;;;5.30;;
12784;SDS011;6456;42.680;23.260;2022-09-03T07:07:36;5.87;;;5.37;;
12784;SDS011;6456;42.680;23.260;2022-09-03T07:10:03;5.87;;;5.33;;
12784;SDS011;6456;42.680;23.260;2022-09-03T07:12:30;6.30;;;5.57;;
12784;SDS011;6456;42.680;23.260;2022-09-03T07:15:02;5.40;;;4.90;;
12784;SDS011;6456;42.680;23.260;2022-09-03T07:17:29;5.37;;;4.97;;
12784;SDS011;6456;42.680;23.260;2022-09-03T07:19:58;5.73;;;5.23;;
12784;SDS011;6456;42.680;23.260;2022-09-03T07:22:24;6.40;;;5.63;;
12784;SDS011;6456;42.680;23.260;2022-09-03T07:24:51;5.27;;;4.87;;
12784;SDS011;6456;42.680;23.260;2022-09-03T07:27:18;5.37;;;4.73;;
12784;SDS011;6456;42.680;23.260;2022-09-03T07:29:45;5.20;;;4.70;;
12784;SDS011;6456;42.680;23.260;2022-09-03T07:32:12;5.00;;;4.60;;
12784;SDS011;6456;42.680;23.260;2022-09-03T07:34:39;5.00;;;4.60;;
12784;SDS011;6456;42.680;23.260;2022-09-03T07:37:07;5.50;;;5.00;;
12784;SDS011;6456;42.680;23.260;2022-09-03T07:39:35;5.60;;;5.10;;
12784;SDS011;6456;42.680;23.260;2022-09-03T07:42:01;7.07;;;4.90;;
12784;SDS011;6456;42.680;23.260;2022-09-03T07:44:29;5.13;;;4.70;;
12784;SDS011;6456;42.680;23.260;2022-09-03T07:46:56;4.77;;;4.33;;
12784;SDS011;6456;42.680;23.260;2022-09-03T07:49:23;5.23;;;4.83;;
12784;SDS011;6456;42.680;23.260;2022-09-03T07:51:50;6.17;;;5.20;;
12784;SDS011;6456;42.680;23.260;2022-09-03T07:54:19;5.23;;;4.83;;
12784;SDS011;6456;42.680;23.260;2022-09-03T07:56:47;5.10;;;4.70;;
12784;SDS011;6456;42.680;23.260;2022-09-03T07:59:14;4.80;;;4.40;;
12784;SDS011;6456;42.680;23.260;2022-09-03T08:01:42;4.60;;;4.30;;
12784;SDS011;6456;42.680;23.260;2022-09-03T08:04:09;5.67;;;5.17;;
12784;SDS011;6456;42.680;23.260;2022-09-03T08:06:36;5.00;;;4.60;;
12784;SDS011;6456;42.680;23.260;2022-09-03T08:09:05;4.40;;;4.10;;
12784;SDS011;6456;42.680;23.260;2022-09-03T08:11:35;4.80;;;4.40;;
12784;SDS011;6456;42.680;23.260;2022-09-03T08:14:04;5.33;;;3.90;;
12784;SDS011;6456;42.680;23.260;2022-09-03T08:16:32;4.47;;;4.17;;
12784;SDS011;6456;42.680;23.260;2022-09-03T08:19:00;5.07;;;4.57;;
12784;SDS011;6456;42.680;23.260;2022-09-03T08:21:27;4.93;;;4.53;;
12784;SDS011;6456;42.680;23.260;2022-09-03T08:23:55;4.70;;;4.30;;
12784;SDS011;6456;42.680;23.260;2022-09-03T08:26:27;4.73;;;4.27;;
12784;SDS011;6456;42.680;23.260;2022-09-03T08:28:58;4.73;;;4.43;;
12784;SDS011;6456;42.680;23.260;2022-09-03T08:31:26;5.10;;;4.70;;
12784;SDS011;6456;42.680;23.260;2022-09-03T08:33:54;4.83;;;4.53;;
12784;SDS011;6456;42.680;23.260;2022-09-03T08:36:22;5.43;;;5.03;;
12784;SDS011;6456;42.680;23.260;2022-09-03T08:38:51;5.50;;;5.00;;
12784;SDS011;6456;42.680;23.260;2022-09-03T08:41:27;4.87;;;4.47;;
12784;SDS011;6456;42.680;23.260;2022-09-03T08:44:15;4.50;;;4.20;;
12784;SDS011;6456;42.680;23.260;2022-09-03T08:46:50;5.47;;;4.97;;
12784;SDS011;6456;42.680;23.260;2022-09-03T08:49:22;4.63;;;4.33;;
12784;SDS011;6456;42.680;23.260;2022-09-03T08:51:51;4.70;;;4.30;;
12784;SDS011;6456;42.680;23.260;2022-09-03T08:54:23;5.33;;;4.93;;
12784;SDS011;6456;42.680;23.260;2022-09-03T08:56:55;4.80;;;4.50;;
12784;SDS011;6456;42.680;23.260;2022-09-03T08:59:28;5.03;;;4.63;;
12784;SDS011;6456;42.680;23.260;2022-09-03T09:01:57;5.00;;;4.60;;
12784;SDS011;6456;42.680;23.260;2022-09-03T09:04:44;4.90;;;4.50;;
12784;SDS011;6456;42.680;23.260;2022-09-03T09:07:22;4.93;;;4.53;;
12784;SDS011;6456;42.680;23.260;2022-09-03T09:09:57;4.77;;;4.37;;
12784;SDS011;6456;42.680;23.260;2022-09-03T09:12:32;5.03;;;4.63;;
12784;SDS011;6456;42.680;23.260;2022-09-03T09:15:07;7.53;;;4.60;;
12784;SDS011;6456;42.680;23.260;2022-09-03T09:17:44;4.70;;;4.30;;
12784;SDS011;6456;42.680;23.260;2022-09-03T09:20:21;5.53;;;4.80;;
12784;SDS011;6456;42.680;23.260;2022-09-03T09:22:56;4.67;;;4.37;;
12784;SDS011;6456;42.680;23.260;2022-09-03T09:25:28;5.10;;;4.57;;
12784;SDS011;6456;42.680;23.260;2022-09-03T09:27:58;4.47;;;4.13;;
12784;SDS011;6456;42.680;23.260;2022-09-03T09:30:28;4.00;;;3.77;;
12784;SDS011;6456;42.680;23.260;2022-09-03T09:32:57;5.35;;;3.65;;
12784;SDS011;6456;42.680;23.260;2022-09-03T09:35:24;4.32;;;3.83;;
12784;SDS011;6456;42.680;23.260;2022-09-03T09:37:52;4.63;;;4.22;;
12784;SDS011;6456;42.680;23.260;2022-09-03T09:40:21;4.30;;;4.00;;
12784;SDS011;6456;42.680;23.260;2022-09-03T09:43:04;4.70;;;4.40;;
12784;SDS011;6456;42.680;23.260;2022-09-03T09:45:33;4.70;;;4.40;;
12784;SDS011;6456;42.680;23.260;2022-09-03T09:48:01;4.50;;;4.10;;
12784;SDS011;6456;42.680;23.260;2022-09-03T09:50:34;4.27;;;3.97;;
12784;SDS011;6456;42.680;23.260;2022-09-03T09:53:02;4.70;;;4.40;;
12784;SDS011;6456;42.680;23.260;2022-09-03T09:55:47;5.10;;;4.70;;
12784;SDS011;6456;42.680;23.260;2022-09-03T09:58:15;4.60;;;4.30;;
12784;SDS011;6456;42.680;23.260;2022-09-03T10:00:54;4.70;;;4.30;;
12784;SDS011;6456;42.680;23.260;2022-09-03T10:03:27;5.00;;;4.60;;
12784;SDS011;6456;42.680;23.260;2022-09-03T10:05:59;4.33;;;4.03;;
12784;SDS011;6456;42.680;23.260;2022-09-03T10:08:49;5.07;;;4.67;;
12784;SDS011;6456;42.680;23.260;2022-09-03T10:11:17;4.87;;;4.57;;
12784;SDS011;6456;42.680;23.260;2022-09-03T10:13:59;4.97;;;4.57;;
12784;SDS011;6456;42.680;23.260;2022-09-03T10:16:30;5.10;;;4.70;;
12784;SDS011;6456;42.680;23.260;2022-09-03T10:19:04;4.60;;;4.20;;
12784;SDS011;6456;42.680;23.260;2022-09-03T10:21:40;4.47;;;4.17;;
12784;SDS011;6456;42.680;23.260;2022-09-03T10:24:15;4.63;;;4.23;;
12784;SDS011;6456;42.680;23.260;2022-09-03T10:26:54;5.37;;;4.97;;
12784;SDS011;6456;42.680;23.260;2022-09-03T10:29:22;4.70;;;4.30;;
12784;SDS011;6456;42.680;23.260;2022-09-03T10:32:02;5.07;;;4.67;;
12784;SDS011;6456;42.680;23.260;2022-09-03T10:34:40;4.30;;;4.00;;
12784;SDS011;6456;42.680;23.260;2022-09-03T10:37:17;4.23;;;3.93;;
12784;SDS011;6456;42.680;23.260;2022-09-03T10:39:55;4.57;;;4.18;;
12784;SDS011;6456;42.680;23.260;2022-09-03T10:42:40;4.90;;;4.50;;
12784;SDS011;6456;42.680;23.260;2022-09-03T10:45:22;4.20;;;3.90;;
12784;SDS011;6456;42.680;23.260;2022-09-03T10:48:05;3.87;;;3.57;;
12784;SDS011;6456;42.680;23.260;2022-09-03T10:50:45;4.00;;;3.70;;
12784;SDS011;6456;42.680;23.260;2022-09-03T10:53:20;4.00;;;3.70;;
12784;SDS011;6456;42.680;23.260;2022-09-03T10:55:56;4.40;;;4.10;;
12784;SDS011;6456;42.680;23.260;2022-09-03T10:58:31;4.83;;;4.43;;
12784;SDS011;6456;42.680;23.260;2022-09-03T11:01:09;4.80;;;4.40;;
12784;SDS011;6456;42.680;23.260;2022-09-03T11:03:49;4.67;;;4.37;;
12784;SDS011;6456;42.680;23.260;2022-09-03T11:06:25;4.25;;;3.95;;
12784;SDS011;6456;42.680;23.260;2022-09-03T11:08:55;3.95;;;3.58;;
12784;SDS011;6456;42.680;23.260;2022-09-03T11:11:26;4.53;;;4.20;;
12784;SDS011;6456;42.680;23.260;2022-09-03T11:13:58;4.25;;;3.92;;
12784;SDS011;6456;42.680;23.260;2022-09-03T11:16:33;4.57;;;4.28;;
12784;SDS011;6456;42.680;23.260;2022-09-03T11:19:07;3.90;;;3.65;;
12784;SDS011;6456;42.680;23.260;2022-09-03T11:21:38;4.13;;;3.83;;
12784;SDS011;6456;42.680;23.260;2022-09-03T11:24:08;4.43;;;4.13;;
12784;SDS011;6456;42.680;23.260;2022-09-03T11:26:38;4.43;;;4.13;;
12784;SDS011;6456;42.680;23.260;2022-09-03T11:29:10;4.68;;;4.28;;
12784;SDS011;6456;42.680;23.260;2022-09-03T11:31:48;4.30;;;4.00;;
12784;SDS011;6456;42.680;23.260;2022-09-03T11:34:29;4.53;;;4.13;;
12784;SDS011;6456;42.680;23.260;2022-09-03T11:37:15;3.97;;;3.65;;
12784;SDS011;6456;42.680;23.260;2022-09-03T11:39:44;4.97;;;3.97;;
12784;SDS011;6456;42.680;23.260;2022-09-03T11:42:22;4.70;;;4.35;;
12784;SDS011;6456;42.680;23.260;2022-09-03T11:45:11;5.45;;;5.00;;
12784;SDS011;6456;42.680;23.260;2022-09-03T11:47:47;4.78;;;4.38;;
12784;SDS011;6456;42.680;23.260;2022-09-03T11:50:18;4.65;;;4.30;;
12784;SDS011;6456;42.680;23.260;2022-09-03T11:52:48;4.40;;;4.10;;
12784;SDS011;6456;42.680;23.260;2022-09-03T11:55:24;3.78;;;3.45;;
12784;SDS011;6456;42.680;23.260;2022-09-03T11:57:54;4.22;;;3.78;;
12784;SDS011;6456;42.680;23.260;2022-09-03T12:00:22;3.70;;;3.50;;
12784;SDS011;6456;42.680;23.260;2022-09-03T12:02:50;4.03;;;3.72;;
12784;SDS011;6456;42.680;23.260;2022-09-03T12:05:25;3.53;;;3.22;;
12784;SDS011;6456;42.680;23.260;2022-09-03T12:08:04;3.40;;;3.20;;
12784;SDS011;6456;42.680;23.260;2022-09-03T12:10:51;3.60;;;3.30;;
12784;SDS011;6456;42.680;23.260;2022-09-03T12:13:29;3.80;;;3.50;;
12784;SDS011;6456;42.680;23.260;2022-09-03T12:16:24;3.65;;;3.42;;
12784;SDS011;6456;42.680;23.260;2022-09-03T12:19:03;4.22;;;3.90;;
12784;SDS011;6456;42.680;23.260;2022-09-03T12:21:38;4.30;;;4.00;;
12784;SDS011;6456;42.680;23.260;2022-09-03T12:24:06;4.78;;;4.38;;
12784;SDS011;6456;42.680;23.260;2022-09-03T12:26:38;4.78;;;4.35;;
12784;SDS011;6456;42.680;23.260;2022-09-03T12:29:17;5.82;;;4.35;;
12784;SDS011;6456;42.680;23.260;2022-09-03T12:31:47;4.88;;;4.47;;
12784;SDS011;6456;42.680;23.260;2022-09-03T12:34:16;4.20;;;3.90;;
12784;SDS011;6456;42.680;23.260;2022-09-03T12:36:46;5.10;;;4.70;;
12784;SDS011;6456;42.680;23.260;2022-09-03T12:39:15;4.05;;;3.75;;
12784;SDS011;6456;42.680;23.260;2022-09-03T12:41:54;3.90;;;3.60;;
12784;SDS011;6456;42.680;23.260;2022-09-03T12:44:26;4.32;;;3.92;;
12784;SDS011;6456;42.680;23.260;2022-09-03T12:47:05;4.82;;;4.43;;
12784;SDS011;6456;42.680;23.260;2022-09-03T12:49:36;4.68;;;4.28;;
12784;SDS011;6456;42.680;23.260;2022-09-03T12:52:08;4.47;;;4.18;;
12784;SDS011;6456;42.680;23.260;2022-09-03T12:54:42;4.15;;;3.83;;
12784;SDS011;6456;42.680;23.260;2022-09-03T12:57:17;4.88;;;4.40;;
12784;SDS011;6456;42.680;23.260;2022-09-03T12:59:47;4.28;;;3.97;;
12784;SDS011;6456;42.680;23.260;2022-09-03T13:02:19;4.45;;;3.97;;
12784;SDS011;6456;42.680;23.260;2022-09-03T13:04:51;3.83;;;3.53;;
12784;SDS011;6456;42.680;23.260;2022-09-03T13:07:22;3.53;;;3.33;;
12784;SDS011;6456;42.680;23.260;2022-09-03T13:09:57;3.72;;;3.42;;
12784;SDS011;6456;42.680;23.260;2022-09-03T13:12:30;2.53;;;2.42;;
12784;SDS011;6456;42.680;23.260;2022-09-03T13:15:04;3.70;;;3.40;;
12784;SDS011;6456;42.680;23.260;2022-09-03T13:17:43;3.15;;;2.95;;
12784;SDS011;6456;42.680;23.260;2022-09-03T13:20:33;3.10;;;2.90;;
12784;SDS011;6456;42.680;23.260;2022-09-03T13:26:08;3.30;;;3.10;;
12784;SDS011;6456;42.680;23.260;2022-09-03T13:28:50;3.60;;;3.35;;
12784;SDS011;6456;42.680;23.260;2022-09-03T13:31:28;3.40;;;3.20;;
12784;SDS011;6456;42.680;23.260;2022-09-03T13:34:00;3.25;;;3.05;;
12784;SDS011;6456;42.680;23.260;2022-09-03T13:36:33;3.20;;;2.97;;
12784;SDS011;6456;42.680;23.260;2022-09-03T13:39:10;3.78;;;3.38;;
12784;SDS011;6456;42.680;23.260;2022-09-03T13:41:48;2.90;;;2.70;;
12784;SDS011;6456;42.680;23.260;2022-09-03T13:44:22;3.20;;;2.90;;
12784;SDS011;6456;42.680;23.260;2022-09-03T13:47:00;3.13;;;2.92;;
12784;SDS011;6456;42.680;23.260;2022-09-03T13:49:34;3.35;;;3.05;;
12784;SDS011;6456;42.680;23.260;2022-09-03T13:52:23;3.00;;;2.80;;
12784;SDS011;6456;42.680;23.260;2022-09-03T13:54:57;3.00;;;2.80;;
12784;SDS011;6456;42.680;23.260;2022-09-03T13:57:36;3.00;;;2.80;;
12784;SDS011;6456;42.680;23.260;2022-09-03T14:00:11;4.20;;;3.90;;
12784;SDS011;6456;42.680;23.260;2022-09-03T14:02:49;3.45;;;3.15;;
12784;SDS011;6456;42.680;23.260;2022-09-03T14:05:22;3.40;;;3.20;;
12784;SDS011;6456;42.680;23.260;2022-09-03T14:08:04;4.20;;;3.55;;
12784;SDS011;6456;42.680;23.260;2022-09-03T14:10:38;3.35;;;3.05;;
12784;SDS011;6456;42.680;23.260;2022-09-03T14:13:21;4.85;;;2.80;;
12784;SDS011;6456;42.680;23.260;2022-09-03T14:16:05;3.47;;;3.22;;
12784;SDS011;6456;42.680;23.260;2022-09-03T14:18:38;3.17;;;2.97;;
12784;SDS011;6456;42.680;23.260;2022-09-03T14:21:15;3.22;;;3.03;;
12784;SDS011;6456;42.680;23.260;2022-09-03T14:23:46;3.40;;;3.20;;
12784;SDS011;6456;42.680;23.260;2022-09-03T14:26:21;3.75;;;3.45;;
12784;SDS011;6456;42.680;23.260;2022-09-03T14:28:58;4.25;;;3.72;;
12784;SDS011;6456;42.680;23.260;2022-09-03T14:31:29;4.60;;;4.20;;
12784;SDS011;6456;42.680;23.260;2022-09-03T14:34:19;3.63;;;3.33;;
12784;SDS011;6456;42.680;23.260;2022-09-03T14:36:58;3.30;;;3.00;;
12784;SDS011;6456;42.680;23.260;2022-09-03T14:39:32;3.17;;;2.85;;
12784;SDS011;6456;42.680;23.260;2022-09-03T14:42:10;3.38;;;3.15;;
12784;SDS011;6456;42.680;23.260;2022-09-03T14:45:02;3.17;;;2.97;;
12784;SDS011;6456;42.680;23.260;2022-09-03T14:48:00;3.85;;;2.80;;
12784;SDS011;6456;42.680;23.260;2022-09-03T14:50:49;3.72;;;2.60;;
12784;SDS011;6456;42.680;23.260;2022-09-03T14:53:49;2.55;;;2.38;;
12784;SDS011;6456;42.680;23.260;2022-09-03T14:56:35;2.88;;;2.50;;
12784;SDS011;6456;42.680;23.260;2022-09-03T14:59:17;3.08;;;2.50;;
12784;SDS011;6456;42.680;23.260;2022-09-03T15:05:13;2.95;;;2.67;;
12784;SDS011;6456;42.680;23.260;2022-09-03T15:07:47;3.03;;;2.83;;
12784;SDS011;6456;42.680;23.260;2022-09-03T15:10:20;3.38;;;2.85;;
12784;SDS011;6456;42.680;23.260;2022-09-03T15:13:06;3.40;;;3.10;;
12784;SDS011;6456;42.680;23.260;2022-09-03T15:15:44;3.10;;;2.75;;
12784;SDS011;6456;42.680;23.260;2022-09-03T15:18:28;3.17;;;2.97;;
12784;SDS011;6456;42.680;23.260;2022-09-03T15:21:06;3.53;;;3.22;;
12784;SDS011;6456;42.680;23.260;2022-09-03T15:23:50;2.90;;;2.70;;
12784;SDS011;6456;42.680;23.260;2022-09-03T15:29:22;2.97;;;2.78;;
12784;SDS011;6456;42.680;23.260;2022-09-03T15:31:58;3.15;;;2.95;;
12784;SDS011;6456;42.680;23.260;2022-09-03T15:34:38;3.75;;;2.78;;
12784;SDS011;6456;42.680;23.260;2022-09-03T15:37:18;3.05;;;2.85;;